sensor_id;sensor_type;location;lat;lon;timestamp;P1;durP1;ratioP1;P2;durP2;ratioP2
49972;SDS011;71845;49.798;10.968;2023-09-18T00:02:26;8.48;;;4.20;;
49972;SDS011;71845;49.798;10.968;2023-09-18T00:04:57;7.00;;;4.45;;
49972;SDS011;71845;49.798;10.968;2023-09-18T00:07:34;8.50;;;4.70;;
49972;SDS011;71845;49.798;10.968;2023-09-18T00:10:03;9.13;;;4.40;;
49972;SDS011;71845;49.798;10.968;2023-09-18T00:12:32;6.72;;;4.43;;
49972;SDS011;71845;49.798;10.968;2023-09-18T00:15:01;7.30;;;4.07;;
49972;SDS011;71845;49.798;10.968;2023-09-18T00:17:32;7.85;;;4.25;;
49972;SDS011;71845;49.798;10.968;2023-09-18T00:20:07;7.70;;;4.05;;
49972;SDS011;71845;49.798;10.968;2023-09-18T00:22:44;6.30;;;4.15;;
49972;SDS011;71845;49.798;10.968;2023-09-18T00:25:14;5.53;;;4.03;;
49972;SDS011;71845;49.798;10.968;2023-09-18T00:27:49;6.38;;;4.28;;
49972;SDS011;71845;49.798;10.968;2023-09-18T00:30:18;7.25;;;4.10;;
49972;SDS011;71845;49.798;10.968;2023-09-18T00:33:00;9.93;;;5.05;;
49972;SDS011;71845;49.798;10.968;2023-09-18T00:35:30;10.38;;;4.70;;
49972;SDS011;71845;49.798;10.968;2023-09-18T00:37:57;7.50;;;4.63;;
49972;SDS011;71845;49.798;10.968;2023-09-18T00:40:25;8.13;;;4.43;;
49972;SDS011;71845;49.798;10.968;2023-09-18T00:43:01;8.20;;;4.05;;
49972;SDS011;71845;49.798;10.968;2023-09-18T00:45:31;8.65;;;4.47;;
49972;SDS011;71845;49.798;10.968;2023-09-18T00:47:59;9.35;;;4.40;;
49972;SDS011;71845;49.798;10.968;2023-09-18T00:50:30;11.57;;;4.43;;
49972;SDS011;71845;49.798;10.968;2023-09-18T00:52:59;8.45;;;4.13;;
49972;SDS011;71845;49.798;10.968;2023-09-18T00:55:31;13.35;;;4.47;;
49972;SDS011;71845;49.798;10.968;2023-09-18T00:58:01;8.18;;;4.70;;
49972;SDS011;71845;49.798;10.968;2023-09-18T01:00:32;7.18;;;4.10;;
49972;SDS011;71845;49.798;10.968;2023-09-18T01:03:05;7.18;;;3.63;;
49972;SDS011;71845;49.798;10.968;2023-09-18T01:05:32;7.15;;;3.90;;
49972;SDS011;71845;49.798;10.968;2023-09-18T01:08:02;6.90;;;3.60;;
49972;SDS011;71845;49.798;10.968;2023-09-18T01:10:40;7.55;;;3.65;;
49972;SDS011;71845;49.798;10.968;2023-09-18T01:13:28;10.38;;;4.07;;
49972;SDS011;71845;49.798;10.968;2023-09-18T01:16:06;8.20;;;3.67;;
49972;SDS011;71845;49.798;10.968;2023-09-18T01:18:53;7.05;;;4.13;;
49972;SDS011;71845;49.798;10.968;2023-09-18T01:21:21;7.47;;;4.00;;
49972;SDS011;71845;49.798;10.968;2023-09-18T01:23:54;6.78;;;3.83;;
49972;SDS011;71845;49.798;10.968;2023-09-18T01:26:29;7.70;;;3.78;;
49972;SDS011;71845;49.798;10.968;2023-09-18T01:28:56;7.22;;;4.20;;
49972;SDS011;71845;49.798;10.968;2023-09-18T01:31:25;7.38;;;3.90;;
49972;SDS011;71845;49.798;10.968;2023-09-18T01:34:03;8.05;;;4.13;;
49972;SDS011;71845;49.798;10.968;2023-09-18T01:36:33;7.00;;;4.05;;
49972;SDS011;71845;49.798;10.968;2023-09-18T01:39:09;6.63;;;3.70;;
49972;SDS011;71845;49.798;10.968;2023-09-18T01:41:46;5.15;;;3.47;;
49972;SDS011;71845;49.798;10.968;2023-09-18T01:44:17;6.90;;;3.78;;
49972;SDS011;71845;49.798;10.968;2023-09-18T01:46:48;6.28;;;3.22;;
49972;SDS011;71845;49.798;10.968;2023-09-18T01:49:30;6.13;;;3.20;;
49972;SDS011;71845;49.798;10.968;2023-09-18T01:52:03;5.80;;;2.95;;
49972;SDS011;71845;49.798;10.968;2023-09-18T01:54:35;5.82;;;2.90;;
49972;SDS011;71845;49.798;10.968;2023-09-18T01:57:04;5.13;;;3.20;;
49972;SDS011;71845;49.798;10.968;2023-09-18T01:59:33;4.60;;;3.35;;
49972;SDS011;71845;49.798;10.968;2023-09-18T02:02:04;4.32;;;3.03;;
49972;SDS011;71845;49.798;10.968;2023-09-18T02:04:42;7.10;;;3.10;;
49972;SDS011;71845;49.798;10.968;2023-09-18T02:07:12;6.72;;;3.22;;
49972;SDS011;71845;49.798;10.968;2023-09-18T02:09:54;5.82;;;3.13;;
49972;SDS011;71845;49.798;10.968;2023-09-18T02:12:24;7.65;;;3.10;;
49972;SDS011;71845;49.798;10.968;2023-09-18T02:14:52;7.07;;;3.65;;
49972;SDS011;71845;49.798;10.968;2023-09-18T02:17:18;6.57;;;3.47;;
49972;SDS011;71845;49.798;10.968;2023-09-18T02:19:47;4.93;;;2.95;;
49972;SDS011;71845;49.798;10.968;2023-09-18T02:22:13;4.78;;;3.67;;
49972;SDS011;71845;49.798;10.968;2023-09-18T02:24:41;6.05;;;3.30;;
49972;SDS011;71845;49.798;10.968;2023-09-18T02:27:16;6.80;;;3.10;;
49972;SDS011;71845;49.798;10.968;2023-09-18T02:29:44;5.20;;;2.97;;
49972;SDS011;71845;49.798;10.968;2023-09-18T02:32:20;5.88;;;3.45;;
49972;SDS011;71845;49.798;10.968;2023-09-18T02:34:56;5.13;;;3.17;;
49972;SDS011;71845;49.798;10.968;2023-09-18T02:37:25;5.55;;;3.10;;
49972;SDS011;71845;49.798;10.968;2023-09-18T02:39:55;4.68;;;3.17;;
49972;SDS011;71845;49.798;10.968;2023-09-18T02:42:27;4.82;;;3.40;;
49972;SDS011;71845;49.798;10.968;2023-09-18T02:44:58;4.72;;;3.20;;
49972;SDS011;71845;49.798;10.968;2023-09-18T02:47:28;5.18;;;3.05;;
49972;SDS011;71845;49.798;10.968;2023-09-18T02:49:58;4.70;;;3.38;;
49972;SDS011;71845;49.798;10.968;2023-09-18T02:52:29;4.88;;;3.38;;
49972;SDS011;71845;49.798;10.968;2023-09-18T02:54:56;5.05;;;3.58;;
49972;SDS011;71845;49.798;10.968;2023-09-18T02:57:37;4.60;;;2.97;;
49972;SDS011;71845;49.798;10.968;2023-09-18T03:00:06;5.15;;;3.45;;
49972;SDS011;71845;49.798;10.968;2023-09-18T03:02:35;5.10;;;3.30;;
49972;SDS011;71845;49.798;10.968;2023-09-18T03:05:03;5.35;;;3.50;;
49972;SDS011;71845;49.798;10.968;2023-09-18T03:07:39;5.53;;;4.10;;
49972;SDS011;71845;49.798;10.968;2023-09-18T03:10:11;6.85;;;3.47;;
49972;SDS011;71845;49.798;10.968;2023-09-18T03:15:29;6.80;;;3.58;;
49972;SDS011;71845;49.798;10.968;2023-09-18T03:18:00;5.57;;;4.05;;
49972;SDS011;71845;49.798;10.968;2023-09-18T03:20:34;4.82;;;3.53;;
49972;SDS011;71845;49.798;10.968;2023-09-18T03:23:04;5.07;;;3.38;;
49972;SDS011;71845;49.798;10.968;2023-09-18T03:25:32;5.93;;;3.92;;
49972;SDS011;71845;49.798;10.968;2023-09-18T03:28:14;5.22;;;3.22;;
49972;SDS011;71845;49.798;10.968;2023-09-18T03:30:44;4.93;;;3.30;;
49972;SDS011;71845;49.798;10.968;2023-09-18T03:33:11;5.40;;;3.47;;
49972;SDS011;71845;49.798;10.968;2023-09-18T03:35:48;6.85;;;4.03;;
49972;SDS011;71845;49.798;10.968;2023-09-18T03:38:20;6.35;;;3.45;;
49972;SDS011;71845;49.798;10.968;2023-09-18T03:40:48;4.57;;;3.40;;
49972;SDS011;71845;49.798;10.968;2023-09-18T03:43:29;7.03;;;3.70;;
49972;SDS011;71845;49.798;10.968;2023-09-18T03:46:02;4.65;;;3.53;;
49972;SDS011;71845;49.798;10.968;2023-09-18T03:48:33;5.65;;;4.03;;
49972;SDS011;71845;49.798;10.968;2023-09-18T03:51:04;4.63;;;3.55;;
49972;SDS011;71845;49.798;10.968;2023-09-18T03:53:41;6.05;;;3.88;;
49972;SDS011;71845;49.798;10.968;2023-09-18T03:56:13;6.78;;;4.05;;
49972;SDS011;71845;49.798;10.968;2023-09-18T03:58:46;6.50;;;4.05;;
49972;SDS011;71845;49.798;10.968;2023-09-18T04:01:16;5.07;;;3.97;;
49972;SDS011;71845;49.798;10.968;2023-09-18T04:03:52;5.65;;;3.47;;
49972;SDS011;71845;49.798;10.968;2023-09-18T04:06:24;6.68;;;3.63;;
49972;SDS011;71845;49.798;10.968;2023-09-18T04:08:53;5.53;;;4.13;;
49972;SDS011;71845;49.798;10.968;2023-09-18T04:11:23;6.00;;;3.58;;
49972;SDS011;71845;49.798;10.968;2023-09-18T04:13:57;5.00;;;3.83;;
49972;SDS011;71845;49.798;10.968;2023-09-18T04:16:27;6.90;;;4.10;;
49972;SDS011;71845;49.798;10.968;2023-09-18T04:18:57;6.03;;;3.53;;
49972;SDS011;71845;49.798;10.968;2023-09-18T04:21:27;6.68;;;4.00;;
49972;SDS011;71845;49.798;10.968;2023-09-18T04:23:57;6.95;;;3.90;;
49972;SDS011;71845;49.798;10.968;2023-09-18T04:26:27;6.78;;;3.92;;
49972;SDS011;71845;49.798;10.968;2023-09-18T04:29:10;6.55;;;4.10;;
49972;SDS011;71845;49.798;10.968;2023-09-18T04:31:39;5.35;;;4.30;;
49972;SDS011;71845;49.798;10.968;2023-09-18T04:34:09;5.93;;;4.45;;
49972;SDS011;71845;49.798;10.968;2023-09-18T04:36:47;6.03;;;3.90;;
49972;SDS011;71845;49.798;10.968;2023-09-18T04:39:14;8.27;;;4.43;;
49972;SDS011;71845;49.798;10.968;2023-09-18T04:41:46;6.82;;;3.75;;
49972;SDS011;71845;49.798;10.968;2023-09-18T04:44:22;5.75;;;3.88;;
49972;SDS011;71845;49.798;10.968;2023-09-18T04:46:52;5.00;;;4.07;;
49972;SDS011;71845;49.798;10.968;2023-09-18T04:49:25;6.13;;;4.25;;
49972;SDS011;71845;49.798;10.968;2023-09-18T04:52:06;6.95;;;4.20;;
49972;SDS011;71845;49.798;10.968;2023-09-18T04:54:35;6.07;;;4.47;;
49972;SDS011;71845;49.798;10.968;2023-09-18T04:57:03;5.95;;;4.47;;
49972;SDS011;71845;49.798;10.968;2023-09-18T04:59:36;6.60;;;4.00;;
49972;SDS011;71845;49.798;10.968;2023-09-18T05:02:06;7.82;;;3.58;;
49972;SDS011;71845;49.798;10.968;2023-09-18T05:04:33;6.15;;;3.97;;
49972;SDS011;71845;49.798;10.968;2023-09-18T05:07:03;5.35;;;4.00;;
49972;SDS011;71845;49.798;10.968;2023-09-18T05:09:34;4.63;;;3.78;;
49972;SDS011;71845;49.798;10.968;2023-09-18T05:12:06;5.95;;;4.25;;
49972;SDS011;71845;49.798;10.968;2023-09-18T05:14:51;6.05;;;4.05;;
49972;SDS011;71845;49.798;10.968;2023-09-18T05:17:27;5.20;;;4.05;;
49972;SDS011;71845;49.798;10.968;2023-09-18T05:20:18;6.68;;;3.92;;
49972;SDS011;71845;49.798;10.968;2023-09-18T05:22:55;6.15;;;4.10;;
49972;SDS011;71845;49.798;10.968;2023-09-18T05:25:33;6.03;;;4.78;;
49972;SDS011;71845;49.798;10.968;2023-09-18T05:28:05;6.20;;;4.45;;
49972;SDS011;71845;49.798;10.968;2023-09-18T05:30:35;8.27;;;4.22;;
49972;SDS011;71845;49.798;10.968;2023-09-18T05:33:06;6.38;;;3.75;;
49972;SDS011;71845;49.798;10.968;2023-09-18T05:35:36;5.35;;;4.03;;
49972;SDS011;71845;49.798;10.968;2023-09-18T05:38:08;6.47;;;3.85;;
49972;SDS011;71845;49.798;10.968;2023-09-18T05:40:39;5.82;;;4.13;;
49972;SDS011;71845;49.798;10.968;2023-09-18T05:43:09;5.90;;;4.28;;
49972;SDS011;71845;49.798;10.968;2023-09-18T05:45:42;4.93;;;3.83;;
49972;SDS011;71845;49.798;10.968;2023-09-18T05:48:10;5.68;;;3.88;;
49972;SDS011;71845;49.798;10.968;2023-09-18T05:50:38;6.05;;;4.30;;
49972;SDS011;71845;49.798;10.968;2023-09-18T05:53:07;5.85;;;4.20;;
49972;SDS011;71845;49.798;10.968;2023-09-18T05:55:38;5.65;;;3.90;;
49972;SDS011;71845;49.798;10.968;2023-09-18T05:58:08;5.60;;;4.20;;
49972;SDS011;71845;49.798;10.968;2023-09-18T06:00:36;6.05;;;4.00;;
49972;SDS011;71845;49.798;10.968;2023-09-18T06:03:16;5.63;;;4.28;;
49972;SDS011;71845;49.798;10.968;2023-09-18T06:05:47;6.75;;;4.25;;
49972;SDS011;71845;49.798;10.968;2023-09-18T06:08:17;6.03;;;4.00;;
49972;SDS011;71845;49.798;10.968;2023-09-18T06:10:46;5.68;;;4.30;;
49972;SDS011;71845;49.798;10.968;2023-09-18T06:13:16;5.93;;;3.83;;
49972;SDS011;71845;49.798;10.968;2023-09-18T06:15:46;7.00;;;4.15;;
49972;SDS011;71845;49.798;10.968;2023-09-18T06:18:30;6.22;;;3.75;;
49972;SDS011;71845;49.798;10.968;2023-09-18T06:21:02;6.72;;;4.20;;
49972;SDS011;71845;49.798;10.968;2023-09-18T06:23:32;5.22;;;4.15;;
49972;SDS011;71845;49.798;10.968;2023-09-18T06:26:02;6.60;;;4.18;;
49972;SDS011;71845;49.798;10.968;2023-09-18T06:28:39;7.13;;;4.32;;
49972;SDS011;71845;49.798;10.968;2023-09-18T06:31:11;7.32;;;4.82;;
49972;SDS011;71845;49.798;10.968;2023-09-18T06:33:44;7.03;;;4.68;;
49972;SDS011;71845;49.798;10.968;2023-09-18T06:36:14;5.78;;;4.93;;
49972;SDS011;71845;49.798;10.968;2023-09-18T06:38:45;6.70;;;4.47;;
49972;SDS011;71845;49.798;10.968;2023-09-18T06:41:21;6.47;;;4.30;;
49972;SDS011;71845;49.798;10.968;2023-09-18T06:43:49;7.30;;;4.75;;
49972;SDS011;71845;49.798;10.968;2023-09-18T06:46:25;7.65;;;4.78;;
49972;SDS011;71845;49.798;10.968;2023-09-18T06:48:59;6.22;;;4.82;;
49972;SDS011;71845;49.798;10.968;2023-09-18T06:51:34;5.75;;;4.30;;
49972;SDS011;71845;49.798;10.968;2023-09-18T06:54:06;9.13;;;4.50;;
49972;SDS011;71845;49.798;10.968;2023-09-18T06:56:37;9.55;;;5.18;;
49972;SDS011;71845;49.798;10.968;2023-09-18T06:59:14;9.93;;;4.93;;
49972;SDS011;71845;49.798;10.968;2023-09-18T07:01:45;9.18;;;5.38;;
49972;SDS011;71845;49.798;10.968;2023-09-18T07:04:32;9.57;;;5.38;;
49972;SDS011;71845;49.798;10.968;2023-09-18T07:07:00;11.52;;;6.05;;
49972;SDS011;71845;49.798;10.968;2023-09-18T07:09:30;9.20;;;5.47;;
49972;SDS011;71845;49.798;10.968;2023-09-18T07:12:07;9.15;;;5.40;;
49972;SDS011;71845;49.798;10.968;2023-09-18T07:14:34;7.93;;;5.35;;
49972;SDS011;71845;49.798;10.968;2023-09-18T07:17:06;8.25;;;5.32;;
49972;SDS011;71845;49.798;10.968;2023-09-18T07:19:41;10.25;;;5.65;;
49972;SDS011;71845;49.798;10.968;2023-09-18T07:22:11;11.90;;;6.50;;
49972;SDS011;71845;49.798;10.968;2023-09-18T07:24:42;9.88;;;5.30;;
49972;SDS011;71845;49.798;10.968;2023-09-18T07:27:13;8.82;;;5.18;;
49972;SDS011;71845;49.798;10.968;2023-09-18T07:29:42;10.52;;;4.88;;
49972;SDS011;71845;49.798;10.968;2023-09-18T07:32:09;8.80;;;5.38;;
49972;SDS011;71845;49.798;10.968;2023-09-18T07:34:54;9.18;;;5.05;;
49972;SDS011;71845;49.798;10.968;2023-09-18T07:37:27;8.48;;;4.50;;
49972;SDS011;71845;49.798;10.968;2023-09-18T07:39:56;6.78;;;4.38;;
49972;SDS011;71845;49.798;10.968;2023-09-18T07:42:25;9.20;;;4.45;;
49972;SDS011;71845;49.798;10.968;2023-09-18T07:44:56;8.25;;;4.55;;
49972;SDS011;71845;49.798;10.968;2023-09-18T07:47:26;8.20;;;4.63;;
49972;SDS011;71845;49.798;10.968;2023-09-18T07:49:59;7.38;;;4.40;;
49972;SDS011;71845;49.798;10.968;2023-09-18T07:52:29;7.25;;;4.35;;
49972;SDS011;71845;49.798;10.968;2023-09-18T07:54:59;7.75;;;4.65;;
49972;SDS011;71845;49.798;10.968;2023-09-18T07:57:26;6.57;;;4.47;;
49972;SDS011;71845;49.798;10.968;2023-09-18T07:59:57;6.93;;;4.43;;
49972;SDS011;71845;49.798;10.968;2023-09-18T08:02:38;5.72;;;4.72;;
49972;SDS011;71845;49.798;10.968;2023-09-18T08:05:19;7.43;;;4.45;;
49972;SDS011;71845;49.798;10.968;2023-09-18T08:07:47;7.88;;;5.20;;
49972;SDS011;71845;49.798;10.968;2023-09-18T08:10:14;5.85;;;4.93;;
49972;SDS011;71845;49.798;10.968;2023-09-18T08:12:44;5.57;;;4.78;;
49972;SDS011;71845;49.798;10.968;2023-09-18T08:15:16;6.40;;;4.38;;
49972;SDS011;71845;49.798;10.968;2023-09-18T08:17:44;7.28;;;5.07;;
49972;SDS011;71845;49.798;10.968;2023-09-18T08:20:16;7.88;;;4.60;;
49972;SDS011;71845;49.798;10.968;2023-09-18T08:22:49;7.45;;;5.25;;
49972;SDS011;71845;49.798;10.968;2023-09-18T08:25:18;7.22;;;5.10;;
49972;SDS011;71845;49.798;10.968;2023-09-18T08:27:52;5.53;;;4.30;;
49972;SDS011;71845;49.798;10.968;2023-09-18T08:30:27;7.32;;;4.93;;
49972;SDS011;71845;49.798;10.968;2023-09-18T08:32:57;6.90;;;4.68;;
49972;SDS011;71845;49.798;10.968;2023-09-18T08:35:28;9.35;;;5.03;;
49972;SDS011;71845;49.798;10.968;2023-09-18T08:37:58;5.90;;;4.05;;
49972;SDS011;71845;49.798;10.968;2023-09-18T08:40:35;5.70;;;4.50;;
49972;SDS011;71845;49.798;10.968;2023-09-18T08:43:05;6.93;;;4.63;;
49972;SDS011;71845;49.798;10.968;2023-09-18T08:45:35;6.63;;;4.38;;
49972;SDS011;71845;49.798;10.968;2023-09-18T08:48:13;5.88;;;4.50;;
49972;SDS011;71845;49.798;10.968;2023-09-18T08:50:45;7.55;;;4.45;;
49972;SDS011;71845;49.798;10.968;2023-09-18T08:53:32;8.02;;;4.47;;
49972;SDS011;71845;49.798;10.968;2023-09-18T08:56:05;7.20;;;4.55;;
49972;SDS011;71845;49.798;10.968;2023-09-18T08:58:35;8.43;;;4.82;;
49972;SDS011;71845;49.798;10.968;2023-09-18T09:01:06;6.63;;;4.68;;
49972;SDS011;71845;49.798;10.968;2023-09-18T09:03:38;8.25;;;4.30;;
49972;SDS011;71845;49.798;10.968;2023-09-18T09:06:12;8.10;;;4.63;;
49972;SDS011;71845;49.798;10.968;2023-09-18T09:08:57;5.60;;;4.22;;
49972;SDS011;71845;49.798;10.968;2023-09-18T09:11:29;6.57;;;4.32;;
49972;SDS011;71845;49.798;10.968;2023-09-18T09:14:10;6.07;;;4.32;;
49972;SDS011;71845;49.798;10.968;2023-09-18T09:16:47;7.35;;;3.40;;
49972;SDS011;71845;49.798;10.968;2023-09-18T09:19:27;11.23;;;4.00;;
49972;SDS011;71845;49.798;10.968;2023-09-18T09:21:57;5.05;;;3.22;;
49972;SDS011;71845;49.798;10.968;2023-09-18T09:24:50;11.07;;;3.17;;
49972;SDS011;71845;49.798;10.968;2023-09-18T09:27:20;7.35;;;2.78;;
49972;SDS011;71845;49.798;10.968;2023-09-18T09:29:59;5.95;;;2.78;;
49972;SDS011;71845;49.798;10.968;2023-09-18T09:32:33;6.80;;;3.13;;
49972;SDS011;71845;49.798;10.968;2023-09-18T09:35:04;7.78;;;3.13;;
49972;SDS011;71845;49.798;10.968;2023-09-18T09:37:38;6.95;;;2.95;;
49972;SDS011;71845;49.798;10.968;2023-09-18T09:40:12;7.13;;;2.92;;
49972;SDS011;71845;49.798;10.968;2023-09-18T09:42:42;5.85;;;2.55;;
49972;SDS011;71845;49.798;10.968;2023-09-18T09:45:13;6.50;;;2.58;;
49972;SDS011;71845;49.798;10.968;2023-09-18T09:47:52;6.68;;;2.47;;
49972;SDS011;71845;49.798;10.968;2023-09-18T09:50:20;5.80;;;2.47;;
49972;SDS011;71845;49.798;10.968;2023-09-18T09:52:52;8.55;;;2.67;;
49972;SDS011;71845;49.798;10.968;2023-09-18T09:55:27;9.55;;;2.78;;
49972;SDS011;71845;49.798;10.968;2023-09-18T09:58:00;9.10;;;2.58;;
49972;SDS011;71845;49.798;10.968;2023-09-18T10:00:31;7.00;;;2.85;;
49972;SDS011;71845;49.798;10.968;2023-09-18T10:03:10;6.68;;;2.53;;
49972;SDS011;71845;49.798;10.968;2023-09-18T10:05:40;6.47;;;2.67;;
49972;SDS011;71845;49.798;10.968;2023-09-18T10:08:14;7.78;;;2.63;;
49972;SDS011;71845;49.798;10.968;2023-09-18T10:10:47;5.65;;;2.40;;
49972;SDS011;71845;49.798;10.968;2023-09-18T10:13:18;4.65;;;2.30;;
49972;SDS011;71845;49.798;10.968;2023-09-18T10:15:53;8.25;;;2.88;;
49972;SDS011;71845;49.798;10.968;2023-09-18T10:18:28;5.93;;;2.78;;
49972;SDS011;71845;49.798;10.968;2023-09-18T10:21:10;6.10;;;2.33;;
49972;SDS011;71845;49.798;10.968;2023-09-18T10:24:02;8.05;;;2.80;;
49972;SDS011;71845;49.798;10.968;2023-09-18T10:27:09;5.85;;;2.83;;
49972;SDS011;71845;49.798;10.968;2023-09-18T10:29:44;6.22;;;2.15;;
49972;SDS011;71845;49.798;10.968;2023-09-18T10:32:19;7.57;;;2.47;;
49972;SDS011;71845;49.798;10.968;2023-09-18T10:34:51;8.23;;;2.40;;
49972;SDS011;71845;49.798;10.968;2023-09-18T10:37:21;5.97;;;1.80;;
49972;SDS011;71845;49.798;10.968;2023-09-18T10:40:01;7.50;;;1.90;;
49972;SDS011;71845;49.798;10.968;2023-09-18T10:42:40;5.75;;;1.98;;
49972;SDS011;71845;49.798;10.968;2023-09-18T10:45:11;5.15;;;2.00;;
49972;SDS011;71845;49.798;10.968;2023-09-18T10:47:43;4.13;;;1.83;;
49972;SDS011;71845;49.798;10.968;2023-09-18T10:50:25;5.13;;;1.50;;
49972;SDS011;71845;49.798;10.968;2023-09-18T10:52:57;6.82;;;1.38;;
49972;SDS011;71845;49.798;10.968;2023-09-18T10:55:33;5.57;;;1.55;;
49972;SDS011;71845;49.798;10.968;2023-09-18T10:58:04;5.40;;;1.42;;
49972;SDS011;71845;49.798;10.968;2023-09-18T11:00:36;5.28;;;1.50;;
49972;SDS011;71845;49.798;10.968;2023-09-18T11:03:11;2.47;;;1.17;;
49972;SDS011;71845;49.798;10.968;2023-09-18T11:05:43;5.13;;;1.48;;
49972;SDS011;71845;49.798;10.968;2023-09-18T11:08:26;5.07;;;1.40;;
49972;SDS011;71845;49.798;10.968;2023-09-18T11:11:01;5.50;;;1.38;;
49972;SDS011;71845;49.798;10.968;2023-09-18T11:16:35;6.75;;;1.40;;
49972;SDS011;71845;49.798;10.968;2023-09-18T11:19:11;3.80;;;1.15;;
49972;SDS011;71845;49.798;10.968;2023-09-18T11:21:41;4.95;;;1.30;;
49972;SDS011;71845;49.798;10.968;2023-09-18T11:24:16;3.92;;;1.10;;
49972;SDS011;71845;49.798;10.968;2023-09-18T11:26:47;4.07;;;1.27;;
49972;SDS011;71845;49.798;10.968;2023-09-18T11:29:35;4.85;;;1.13;;
49972;SDS011;71845;49.798;10.968;2023-09-18T11:32:07;6.05;;;1.17;;
49972;SDS011;71845;49.798;10.968;2023-09-18T11:34:35;3.55;;;1.17;;
49972;SDS011;71845;49.798;10.968;2023-09-18T11:37:18;2.08;;;1.17;;
49972;SDS011;71845;49.798;10.968;2023-09-18T11:39:56;7.25;;;1.20;;
49972;SDS011;71845;49.798;10.968;2023-09-18T11:42:29;4.45;;;1.30;;
49972;SDS011;71845;49.798;10.968;2023-09-18T11:45:11;2.92;;;1.20;;
49972;SDS011;71845;49.798;10.968;2023-09-18T11:47:48;5.13;;;1.67;;
49972;SDS011;71845;49.798;10.968;2023-09-18T11:50:20;5.20;;;1.67;;
49972;SDS011;71845;49.798;10.968;2023-09-18T11:52:52;3.45;;;1.40;;
49972;SDS011;71845;49.798;10.968;2023-09-18T11:55:24;5.75;;;1.35;;
49972;SDS011;71845;49.798;10.968;2023-09-18T11:57:54;3.10;;;1.13;;
49972;SDS011;71845;49.798;10.968;2023-09-18T12:00:41;4.97;;;1.52;;
49972;SDS011;71845;49.798;10.968;2023-09-18T12:03:21;4.22;;;1.25;;
49972;SDS011;71845;49.798;10.968;2023-09-18T12:06:00;4.88;;;1.33;;
49972;SDS011;71845;49.798;10.968;2023-09-18T12:08:31;4.97;;;1.20;;
49972;SDS011;71845;49.798;10.968;2023-09-18T12:11:04;4.45;;;1.30;;
49972;SDS011;71845;49.798;10.968;2023-09-18T12:13:33;5.13;;;1.25;;
49972;SDS011;71845;49.798;10.968;2023-09-18T12:16:20;4.65;;;1.45;;
49972;SDS011;71845;49.798;10.968;2023-09-18T12:18:48;3.47;;;1.10;;
49972;SDS011;71845;49.798;10.968;2023-09-18T12:21:19;4.28;;;1.30;;
49972;SDS011;71845;49.798;10.968;2023-09-18T12:23:49;6.72;;;1.65;;
49972;SDS011;71845;49.798;10.968;2023-09-18T12:26:19;4.93;;;1.40;;
49972;SDS011;71845;49.798;10.968;2023-09-18T12:28:52;4.18;;;1.30;;
49972;SDS011;71845;49.798;10.968;2023-09-18T12:31:31;4.47;;;1.23;;
49972;SDS011;71845;49.798;10.968;2023-09-18T12:34:01;2.65;;;1.00;;
49972;SDS011;71845;49.798;10.968;2023-09-18T12:36:29;3.72;;;1.00;;
49972;SDS011;71845;49.798;10.968;2023-09-18T12:39:00;2.63;;;0.98;;
49972;SDS011;71845;49.798;10.968;2023-09-18T12:41:35;4.18;;;1.27;;
49972;SDS011;71845;49.798;10.968;2023-09-18T12:44:12;3.08;;;1.52;;
49972;SDS011;71845;49.798;10.968;2023-09-18T12:47:00;4.65;;;1.13;;
49972;SDS011;71845;49.798;10.968;2023-09-18T12:49:30;2.35;;;1.05;;
49972;SDS011;71845;49.798;10.968;2023-09-18T12:52:01;4.13;;;1.10;;
49972;SDS011;71845;49.798;10.968;2023-09-18T12:54:38;3.78;;;1.13;;
49972;SDS011;71845;49.798;10.968;2023-09-18T12:57:14;2.83;;;1.08;;
49972;SDS011;71845;49.798;10.968;2023-09-18T12:59:43;3.80;;;1.17;;
49972;SDS011;71845;49.798;10.968;2023-09-18T13:02:24;4.05;;;1.42;;
49972;SDS011;71845;49.798;10.968;2023-09-18T13:04:53;4.20;;;1.20;;
49972;SDS011;71845;49.798;10.968;2023-09-18T13:07:22;4.15;;;1.95;;
49972;SDS011;71845;49.798;10.968;2023-09-18T13:10:00;4.28;;;1.10;;
49972;SDS011;71845;49.798;10.968;2023-09-18T13:12:40;5.47;;;2.03;;
49972;SDS011;71845;49.798;10.968;2023-09-18T13:15:10;3.97;;;1.00;;
49972;SDS011;71845;49.798;10.968;2023-09-18T13:17:45;3.97;;;1.45;;
49972;SDS011;71845;49.798;10.968;2023-09-18T13:20:14;4.00;;;1.23;;
49972;SDS011;71845;49.798;10.968;2023-09-18T13:22:48;6.05;;;1.45;;
49972;SDS011;71845;49.798;10.968;2023-09-18T13:25:21;6.65;;;1.25;;
49972;SDS011;71845;49.798;10.968;2023-09-18T13:27:51;4.93;;;1.83;;
49972;SDS011;71845;49.798;10.968;2023-09-18T13:30:30;4.55;;;1.48;;
49972;SDS011;71845;49.798;10.968;2023-09-18T13:33:18;4.22;;;1.40;;
49972;SDS011;71845;49.798;10.968;2023-09-18T13:35:50;2.67;;;1.10;;
49972;SDS011;71845;49.798;10.968;2023-09-18T13:38:19;4.38;;;1.30;;
49972;SDS011;71845;49.798;10.968;2023-09-18T13:41:01;4.55;;;1.50;;
49972;SDS011;71845;49.798;10.968;2023-09-18T13:43:31;4.63;;;1.50;;
49972;SDS011;71845;49.798;10.968;2023-09-18T13:46:02;3.97;;;1.55;;
49972;SDS011;71845;49.798;10.968;2023-09-18T13:48:35;3.95;;;1.52;;
49972;SDS011;71845;49.798;10.968;2023-09-18T13:51:12;4.70;;;1.55;;
49972;SDS011;71845;49.798;10.968;2023-09-18T13:53:41;5.65;;;1.50;;
49972;SDS011;71845;49.798;10.968;2023-09-18T13:56:13;4.85;;;1.38;;
49972;SDS011;71845;49.798;10.968;2023-09-18T13:58:40;6.88;;;1.35;;
49972;SDS011;71845;49.798;10.968;2023-09-18T14:01:09;4.65;;;1.17;;
49972;SDS011;71845;49.798;10.968;2023-09-18T14:03:49;3.53;;;1.27;;
49972;SDS011;71845;49.798;10.968;2023-09-18T14:06:19;3.65;;;1.17;;
49972;SDS011;71845;49.798;10.968;2023-09-18T14:08:50;4.28;;;1.10;;
49972;SDS011;71845;49.798;10.968;2023-09-18T14:11:20;3.45;;;1.27;;
49972;SDS011;71845;49.798;10.968;2023-09-18T14:13:50;3.88;;;1.05;;
49972;SDS011;71845;49.798;10.968;2023-09-18T14:16:21;2.15;;;1.05;;
49972;SDS011;71845;49.798;10.968;2023-09-18T14:18:53;4.13;;;1.10;;
49972;SDS011;71845;49.798;10.968;2023-09-18T14:21:21;4.28;;;1.25;;
49972;SDS011;71845;49.798;10.968;2023-09-18T14:23:50;1.77;;;0.90;;
49972;SDS011;71845;49.798;10.968;2023-09-18T14:26:20;3.17;;;1.10;;
49972;SDS011;71845;49.798;10.968;2023-09-18T14:28:50;3.65;;;1.20;;
49972;SDS011;71845;49.798;10.968;2023-09-18T14:31:20;2.65;;;1.00;;
49972;SDS011;71845;49.798;10.968;2023-09-18T14:34:03;4.20;;;0.90;;
49972;SDS011;71845;49.798;10.968;2023-09-18T14:36:35;2.53;;;0.88;;
49972;SDS011;71845;49.798;10.968;2023-09-18T14:39:06;2.92;;;1.00;;
49972;SDS011;71845;49.798;10.968;2023-09-18T14:41:42;2.33;;;1.00;;
49972;SDS011;71845;49.798;10.968;2023-09-18T14:44:09;2.92;;;1.10;;
49972;SDS011;71845;49.798;10.968;2023-09-18T14:46:40;2.97;;;1.13;;
49972;SDS011;71845;49.798;10.968;2023-09-18T14:49:12;4.20;;;1.27;;
49972;SDS011;71845;49.798;10.968;2023-09-18T14:51:42;4.22;;;1.17;;
49972;SDS011;71845;49.798;10.968;2023-09-18T14:54:13;4.47;;;1.10;;
49972;SDS011;71845;49.798;10.968;2023-09-18T14:56:43;4.28;;;1.00;;
49972;SDS011;71845;49.798;10.968;2023-09-18T14:59:14;3.17;;;1.10;;
49972;SDS011;71845;49.798;10.968;2023-09-18T15:01:42;3.45;;;1.08;;
49972;SDS011;71845;49.798;10.968;2023-09-18T15:04:16;5.20;;;1.23;;
49972;SDS011;71845;49.798;10.968;2023-09-18T15:06:44;3.00;;;0.95;;
49972;SDS011;71845;49.798;10.968;2023-09-18T15:09:14;1.88;;;0.93;;
49972;SDS011;71845;49.798;10.968;2023-09-18T15:11:45;3.70;;;1.30;;
49972;SDS011;71845;49.798;10.968;2023-09-18T15:14:13;4.78;;;1.25;;